IXB weather

Bagdogra Airport
Siliguri, West Bengal, India

Public forecast

Using degrees Celsius for public forecast. Weather courtesy of forecast.io.

Current aviation weather report (METAR) for Bagdogra Airport

Retrieved 2020/08/06 22:30 UTC (1 hour ago):

VEBD 062230Z 02004KT 6000 TS FEW010 SCT025 FEW030CB BKN090 27/25 Q1004 TEMPO RAIN

Aviation forecast (TAF) for Bagdogra Airport

Forecast is more than 6 hours old.

Retrieved 2020/08/06 12:30 UTC (11 hours ago):

TAF VEBD 060930Z 0612/0624 10005KT 6000 SCT025 SCT090 TEMPO 0617/0621 3000 TSRA SCT020 FEW030CB BKN080